sensor_id;sensor_type;location;lat;lon;timestamp;P1;durP1;ratioP1;P2;durP2;ratioP2
25015;SDS011;13029;46.286;7.488;2023-07-16T00:01:56;6.63;;;4.38;;
25015;SDS011;13029;46.286;7.488;2023-07-16T00:04:22;7.03;;;4.10;;
25015;SDS011;13029;46.286;7.488;2023-07-16T00:06:47;9.07;;;4.43;;
25015;SDS011;13029;46.286;7.488;2023-07-16T00:09:13;6.65;;;4.00;;
25015;SDS011;13029;46.286;7.488;2023-07-16T00:11:38;9.15;;;4.35;;
25015;SDS011;13029;46.286;7.488;2023-07-16T00:14:03;5.88;;;4.20;;
25015;SDS011;13029;46.286;7.488;2023-07-16T00:16:28;7.70;;;4.07;;
25015;SDS011;13029;46.286;7.488;2023-07-16T00:18:54;8.35;;;4.38;;
25015;SDS011;13029;46.286;7.488;2023-07-16T00:21:19;6.43;;;3.95;;
25015;SDS011;13029;46.286;7.488;2023-07-16T00:23:45;7.00;;;4.10;;
25015;SDS011;13029;46.286;7.488;2023-07-16T00:26:10;6.43;;;4.13;;
25015;SDS011;13029;46.286;7.488;2023-07-16T00:28:35;7.60;;;4.47;;
25015;SDS011;13029;46.286;7.488;2023-07-16T00:31:01;6.13;;;3.97;;
25015;SDS011;13029;46.286;7.488;2023-07-16T00:33:26;6.60;;;4.13;;
25015;SDS011;13029;46.286;7.488;2023-07-16T00:35:51;6.70;;;4.53;;
25015;SDS011;13029;46.286;7.488;2023-07-16T00:38:17;7.65;;;4.72;;
25015;SDS011;13029;46.286;7.488;2023-07-16T00:40:43;10.20;;;4.63;;
25015;SDS011;13029;46.286;7.488;2023-07-16T00:43:08;7.63;;;4.18;;
25015;SDS011;13029;46.286;7.488;2023-07-16T00:45:34;10.90;;;4.88;;
25015;SDS011;13029;46.286;7.488;2023-07-16T00:47:59;6.93;;;4.28;;
25015;SDS011;13029;46.286;7.488;2023-07-16T00:50:25;9.48;;;3.42;;
25015;SDS011;13029;46.286;7.488;2023-07-16T00:52:50;6.55;;;3.67;;
25015;SDS011;13029;46.286;7.488;2023-07-16T00:55:15;5.50;;;3.35;;
25015;SDS011;13029;46.286;7.488;2023-07-16T00:57:41;6.70;;;3.80;;
25015;SDS011;13029;46.286;7.488;2023-07-16T01:00:06;6.43;;;3.85;;
25015;SDS011;13029;46.286;7.488;2023-07-16T01:02:32;4.70;;;2.92;;
25015;SDS011;13029;46.286;7.488;2023-07-16T01:04:58;8.07;;;3.97;;
25015;SDS011;13029;46.286;7.488;2023-07-16T01:07:24;7.28;;;3.35;;
25015;SDS011;13029;46.286;7.488;2023-07-16T01:09:50;6.95;;;3.40;;
25015;SDS011;13029;46.286;7.488;2023-07-16T01:12:16;8.00;;;3.47;;
25015;SDS011;13029;46.286;7.488;2023-07-16T01:14:44;6.55;;;3.75;;
25015;SDS011;13029;46.286;7.488;2023-07-16T01:17:10;10.30;;;3.22;;
25015;SDS011;13029;46.286;7.488;2023-07-16T01:19:35;6.47;;;3.38;;
25015;SDS011;13029;46.286;7.488;2023-07-16T01:30:45;5.03;;;3.05;;
25015;SDS011;13029;46.286;7.488;2023-07-16T01:33:11;6.70;;;3.08;;
25015;SDS011;13029;46.286;7.488;2023-07-16T01:35:37;5.05;;;3.10;;
25015;SDS011;13029;46.286;7.488;2023-07-16T01:38:04;8.07;;;3.30;;
25015;SDS011;13029;46.286;7.488;2023-07-16T01:40:30;5.13;;;2.97;;
25015;SDS011;13029;46.286;7.488;2023-07-16T01:42:55;4.50;;;3.00;;
25015;SDS011;13029;46.286;7.488;2023-07-16T01:45:20;3.78;;;2.72;;
25015;SDS011;13029;46.286;7.488;2023-07-16T01:47:50;5.07;;;3.42;;
25015;SDS011;13029;46.286;7.488;2023-07-16T01:50:24;8.23;;;3.50;;
25015;SDS011;13029;46.286;7.488;2023-07-16T01:52:50;6.95;;;3.70;;
25015;SDS011;13029;46.286;7.488;2023-07-16T01:55:15;4.38;;;2.78;;
25015;SDS011;13029;46.286;7.488;2023-07-16T01:57:40;4.47;;;2.78;;
25015;SDS011;13029;46.286;7.488;2023-07-16T02:00:06;6.70;;;2.83;;
25015;SDS011;13029;46.286;7.488;2023-07-16T02:02:33;4.82;;;2.97;;
25015;SDS011;13029;46.286;7.488;2023-07-16T02:04:58;5.53;;;2.78;;
25015;SDS011;13029;46.286;7.488;2023-07-16T02:07:23;7.10;;;2.88;;
25015;SDS011;13029;46.286;7.488;2023-07-16T02:09:49;5.18;;;2.60;;
25015;SDS011;13029;46.286;7.488;2023-07-16T02:12:14;4.90;;;3.17;;
25015;SDS011;13029;46.286;7.488;2023-07-16T02:14:40;5.22;;;2.78;;
25015;SDS011;13029;46.286;7.488;2023-07-16T02:17:05;5.28;;;2.60;;
25015;SDS011;13029;46.286;7.488;2023-07-16T02:19:30;4.65;;;2.50;;
25015;SDS011;13029;46.286;7.488;2023-07-16T02:21:56;6.07;;;2.88;;
25015;SDS011;13029;46.286;7.488;2023-07-16T02:24:21;5.05;;;2.90;;
25015;SDS011;13029;46.286;7.488;2023-07-16T02:26:46;4.03;;;2.72;;
25015;SDS011;13029;46.286;7.488;2023-07-16T02:29:12;4.90;;;2.60;;
25015;SDS011;13029;46.286;7.488;2023-07-16T02:31:37;4.55;;;2.63;;
25015;SDS011;13029;46.286;7.488;2023-07-16T02:34:02;2.95;;;2.47;;
25015;SDS011;13029;46.286;7.488;2023-07-16T02:36:28;4.68;;;2.60;;
25015;SDS011;13029;46.286;7.488;2023-07-16T02:38:53;4.53;;;3.00;;
25015;SDS011;13029;46.286;7.488;2023-07-16T02:41:18;4.57;;;2.40;;
25015;SDS011;13029;46.286;7.488;2023-07-16T02:43:45;3.83;;;2.78;;
25015;SDS011;13029;46.286;7.488;2023-07-16T02:46:10;6.90;;;2.75;;
25015;SDS011;13029;46.286;7.488;2023-07-16T02:48:36;8.73;;;2.80;;
25015;SDS011;13029;46.286;7.488;2023-07-16T02:51:01;3.70;;;2.33;;
25015;SDS011;13029;46.286;7.488;2023-07-16T02:53:26;5.07;;;2.60;;
25015;SDS011;13029;46.286;7.488;2023-07-16T02:55:51;7.28;;;2.60;;
25015;SDS011;13029;46.286;7.488;2023-07-16T02:58:17;5.05;;;2.70;;
25015;SDS011;13029;46.286;7.488;2023-07-16T03:00:42;4.28;;;2.50;;
25015;SDS011;13029;46.286;7.488;2023-07-16T03:03:07;4.78;;;2.67;;
25015;SDS011;13029;46.286;7.488;2023-07-16T03:05:33;3.63;;;2.15;;
25015;SDS011;13029;46.286;7.488;2023-07-16T03:07:58;4.40;;;2.55;;
25015;SDS011;13029;46.286;7.488;2023-07-16T03:10:24;3.60;;;2.33;;
25015;SDS011;13029;46.286;7.488;2023-07-16T03:12:51;3.38;;;2.35;;
25015;SDS011;13029;46.286;7.488;2023-07-16T03:15:17;6.15;;;1.95;;
25015;SDS011;13029;46.286;7.488;2023-07-16T03:17:42;2.67;;;2.20;;
25015;SDS011;13029;46.286;7.488;2023-07-16T03:20:07;4.75;;;2.38;;
25015;SDS011;13029;46.286;7.488;2023-07-16T03:22:33;4.20;;;2.28;;
25015;SDS011;13029;46.286;7.488;2023-07-16T03:24:59;3.33;;;2.10;;
25015;SDS011;13029;46.286;7.488;2023-07-16T03:27:24;4.63;;;2.28;;
25015;SDS011;13029;46.286;7.488;2023-07-16T03:29:49;3.42;;;2.30;;
25015;SDS011;13029;46.286;7.488;2023-07-16T03:32:15;3.47;;;2.00;;
25015;SDS011;13029;46.286;7.488;2023-07-16T03:34:40;3.25;;;2.20;;
25015;SDS011;13029;46.286;7.488;2023-07-16T03:37:05;3.85;;;2.33;;
25015;SDS011;13029;46.286;7.488;2023-07-16T03:39:31;4.38;;;2.35;;
25015;SDS011;13029;46.286;7.488;2023-07-16T03:41:56;5.40;;;2.58;;
25015;SDS011;13029;46.286;7.488;2023-07-16T03:44:21;2.80;;;1.80;;
25015;SDS011;13029;46.286;7.488;2023-07-16T03:46:47;6.40;;;2.65;;
25015;SDS011;13029;46.286;7.488;2023-07-16T03:49:12;4.38;;;2.63;;
25015;SDS011;13029;46.286;7.488;2023-07-16T03:51:37;3.65;;;1.95;;
25015;SDS011;13029;46.286;7.488;2023-07-16T03:54:03;4.38;;;2.38;;
25015;SDS011;13029;46.286;7.488;2023-07-16T03:56:28;4.75;;;2.00;;
25015;SDS011;13029;46.286;7.488;2023-07-16T03:58:53;6.15;;;2.30;;
25015;SDS011;13029;46.286;7.488;2023-07-16T04:01:19;4.47;;;2.15;;
25015;SDS011;13029;46.286;7.488;2023-07-16T04:03:44;6.40;;;2.08;;
25015;SDS011;13029;46.286;7.488;2023-07-16T04:06:09;6.15;;;2.20;;
25015;SDS011;13029;46.286;7.488;2023-07-16T04:08:35;4.05;;;2.38;;
25015;SDS011;13029;46.286;7.488;2023-07-16T04:11:01;4.55;;;2.00;;
25015;SDS011;13029;46.286;7.488;2023-07-16T04:13:27;4.90;;;2.30;;
25015;SDS011;13029;46.286;7.488;2023-07-16T04:15:53;2.53;;;1.85;;
25015;SDS011;13029;46.286;7.488;2023-07-16T04:18:19;4.72;;;2.13;;
25015;SDS011;13029;46.286;7.488;2023-07-16T04:20:46;5.22;;;2.47;;
25015;SDS011;13029;46.286;7.488;2023-07-16T04:23:11;4.35;;;2.30;;
25015;SDS011;13029;46.286;7.488;2023-07-16T04:25:36;4.00;;;2.10;;
25015;SDS011;13029;46.286;7.488;2023-07-16T04:28:01;3.50;;;2.25;;
25015;SDS011;13029;46.286;7.488;2023-07-16T04:30:28;5.10;;;2.70;;
25015;SDS011;13029;46.286;7.488;2023-07-16T04:32:54;4.18;;;2.33;;
25015;SDS011;13029;46.286;7.488;2023-07-16T04:35:19;4.38;;;2.25;;
25015;SDS011;13029;46.286;7.488;2023-07-16T04:37:45;5.88;;;2.50;;
25015;SDS011;13029;46.286;7.488;2023-07-16T04:40:10;7.72;;;2.22;;
25015;SDS011;13029;46.286;7.488;2023-07-16T04:42:35;4.40;;;2.47;;
25015;SDS011;13029;46.286;7.488;2023-07-16T04:45:01;3.35;;;2.22;;
25015;SDS011;13029;46.286;7.488;2023-07-16T04:47:26;3.15;;;2.13;;
25015;SDS011;13029;46.286;7.488;2023-07-16T04:49:51;3.75;;;2.40;;
25015;SDS011;13029;46.286;7.488;2023-07-16T04:52:17;3.83;;;2.10;;
25015;SDS011;13029;46.286;7.488;2023-07-16T04:54:42;5.53;;;2.58;;
25015;SDS011;13029;46.286;7.488;2023-07-16T04:57:08;4.13;;;2.17;;
25015;SDS011;13029;46.286;7.488;2023-07-16T04:59:33;3.92;;;2.80;;
25015;SDS011;13029;46.286;7.488;2023-07-16T05:01:59;3.55;;;1.98;;
25015;SDS011;13029;46.286;7.488;2023-07-16T05:04:24;3.92;;;1.90;;
25015;SDS011;13029;46.286;7.488;2023-07-16T05:06:49;5.50;;;2.40;;
25015;SDS011;13029;46.286;7.488;2023-07-16T05:09:15;5.45;;;2.50;;
25015;SDS011;13029;46.286;7.488;2023-07-16T05:11:40;4.75;;;2.28;;
25015;SDS011;13029;46.286;7.488;2023-07-16T05:14:05;3.42;;;1.88;;
25015;SDS011;13029;46.286;7.488;2023-07-16T05:16:31;2.10;;;1.85;;
25015;SDS011;13029;46.286;7.488;2023-07-16T05:18:56;3.35;;;2.10;;
25015;SDS011;13029;46.286;7.488;2023-07-16T05:21:21;4.10;;;1.88;;
25015;SDS011;13029;46.286;7.488;2023-07-16T05:23:46;4.70;;;2.00;;
25015;SDS011;13029;46.286;7.488;2023-07-16T05:26:12;3.13;;;2.00;;
25015;SDS011;13029;46.286;7.488;2023-07-16T05:28:37;4.70;;;2.35;;
25015;SDS011;13029;46.286;7.488;2023-07-16T05:31:03;4.55;;;2.05;;
25015;SDS011;13029;46.286;7.488;2023-07-16T05:33:28;4.55;;;2.10;;
25015;SDS011;13029;46.286;7.488;2023-07-16T05:35:53;3.97;;;2.88;;
25015;SDS011;13029;46.286;7.488;2023-07-16T05:38:19;5.25;;;2.00;;
25015;SDS011;13029;46.286;7.488;2023-07-16T05:40:44;5.45;;;2.08;;
25015;SDS011;13029;46.286;7.488;2023-07-16T05:43:10;6.95;;;2.17;;
25015;SDS011;13029;46.286;7.488;2023-07-16T05:45:36;4.72;;;2.10;;
25015;SDS011;13029;46.286;7.488;2023-07-16T05:48:01;4.85;;;2.00;;
25015;SDS011;13029;46.286;7.488;2023-07-16T05:50:27;4.95;;;2.28;;
25015;SDS011;13029;46.286;7.488;2023-07-16T05:52:52;3.17;;;2.20;;
25015;SDS011;13029;46.286;7.488;2023-07-16T05:55:17;3.47;;;1.83;;
25015;SDS011;13029;46.286;7.488;2023-07-16T05:57:43;3.47;;;2.10;;
25015;SDS011;13029;46.286;7.488;2023-07-16T06:00:08;2.88;;;2.00;;
25015;SDS011;13029;46.286;7.488;2023-07-16T06:02:35;4.35;;;2.20;;
25015;SDS011;13029;46.286;7.488;2023-07-16T06:05:00;4.00;;;1.95;;
25015;SDS011;13029;46.286;7.488;2023-07-16T06:07:25;2.47;;;2.10;;
25015;SDS011;13029;46.286;7.488;2023-07-16T06:09:51;3.75;;;2.20;;
25015;SDS011;13029;46.286;7.488;2023-07-16T06:12:16;2.60;;;2.05;;
25015;SDS011;13029;46.286;7.488;2023-07-16T06:14:41;2.10;;;1.90;;
25015;SDS011;13029;46.286;7.488;2023-07-16T06:17:07;3.10;;;2.15;;
25015;SDS011;13029;46.286;7.488;2023-07-16T06:19:32;2.10;;;1.90;;
25015;SDS011;13029;46.286;7.488;2023-07-16T06:21:57;5.20;;;3.35;;
25015;SDS011;13029;46.286;7.488;2023-07-16T06:24:22;4.55;;;2.17;;
25015;SDS011;13029;46.286;7.488;2023-07-16T06:26:48;3.42;;;2.10;;
25015;SDS011;13029;46.286;7.488;2023-07-16T06:29:13;2.70;;;1.98;;
25015;SDS011;13029;46.286;7.488;2023-07-16T06:31:38;3.15;;;1.85;;
25015;SDS011;13029;46.286;7.488;2023-07-16T06:34:04;3.13;;;2.10;;
25015;SDS011;13029;46.286;7.488;2023-07-16T06:36:29;3.58;;;2.40;;
25015;SDS011;13029;46.286;7.488;2023-07-16T06:38:55;3.90;;;2.10;;
25015;SDS011;13029;46.286;7.488;2023-07-16T06:41:20;2.53;;;1.83;;
25015;SDS011;13029;46.286;7.488;2023-07-16T06:43:46;4.32;;;2.40;;
25015;SDS011;13029;46.286;7.488;2023-07-16T06:46:11;2.05;;;1.80;;
25015;SDS011;13029;46.286;7.488;2023-07-16T06:48:36;2.70;;;1.95;;
25015;SDS011;13029;46.286;7.488;2023-07-16T06:51:02;4.38;;;2.20;;
25015;SDS011;13029;46.286;7.488;2023-07-16T06:53:27;3.30;;;1.98;;
25015;SDS011;13029;46.286;7.488;2023-07-16T06:55:52;2.60;;;2.13;;
25015;SDS011;13029;46.286;7.488;2023-07-16T06:58:18;2.78;;;2.20;;
25015;SDS011;13029;46.286;7.488;2023-07-16T07:00:43;3.67;;;2.00;;
25015;SDS011;13029;46.286;7.488;2023-07-16T07:03:08;4.80;;;2.30;;
25015;SDS011;13029;46.286;7.488;2023-07-16T07:05:34;4.35;;;1.98;;
25015;SDS011;13029;46.286;7.488;2023-07-16T07:08:01;2.40;;;2.08;;
25015;SDS011;13029;46.286;7.488;2023-07-16T07:10:27;4.55;;;2.03;;
25015;SDS011;13029;46.286;7.488;2023-07-16T07:12:52;4.45;;;2.00;;
25015;SDS011;13029;46.286;7.488;2023-07-16T07:15:18;2.50;;;1.83;;
25015;SDS011;13029;46.286;7.488;2023-07-16T07:17:43;5.97;;;2.25;;
25015;SDS011;13029;46.286;7.488;2023-07-16T07:20:11;8.48;;;2.17;;
25015;SDS011;13029;46.286;7.488;2023-07-16T07:22:37;2.72;;;2.17;;
25015;SDS011;13029;46.286;7.488;2023-07-16T07:25:03;2.45;;;1.80;;
25015;SDS011;13029;46.286;7.488;2023-07-16T07:27:29;5.22;;;1.85;;
25015;SDS011;13029;46.286;7.488;2023-07-16T07:29:54;2.25;;;1.67;;
25015;SDS011;13029;46.286;7.488;2023-07-16T07:32:20;6.35;;;2.38;;
25015;SDS011;13029;46.286;7.488;2023-07-16T07:34:46;2.78;;;1.75;;
25015;SDS011;13029;46.286;7.488;2023-07-16T07:37:11;3.22;;;1.95;;
25015;SDS011;13029;46.286;7.488;2023-07-16T07:39:36;3.60;;;2.10;;
25015;SDS011;13029;46.286;7.488;2023-07-16T07:42:02;3.55;;;1.77;;
25015;SDS011;13029;46.286;7.488;2023-07-16T07:44:27;3.08;;;1.88;;
25015;SDS011;13029;46.286;7.488;2023-07-16T07:46:52;4.68;;;2.00;;
25015;SDS011;13029;46.286;7.488;2023-07-16T07:49:18;2.50;;;2.15;;
25015;SDS011;13029;46.286;7.488;2023-07-16T07:51:43;3.30;;;1.90;;
25015;SDS011;13029;46.286;7.488;2023-07-16T07:54:08;4.25;;;2.28;;
25015;SDS011;13029;46.286;7.488;2023-07-16T07:56:34;3.28;;;1.83;;
25015;SDS011;13029;46.286;7.488;2023-07-16T07:58:59;3.17;;;1.83;;
25015;SDS011;13029;46.286;7.488;2023-07-16T08:01:24;2.92;;;2.10;;
25015;SDS011;13029;46.286;7.488;2023-07-16T08:03:49;4.57;;;2.30;;
25015;SDS011;13029;46.286;7.488;2023-07-16T08:06:15;2.30;;;2.10;;
25015;SDS011;13029;46.286;7.488;2023-07-16T08:08:40;2.60;;;1.92;;
25015;SDS011;13029;46.286;7.488;2023-07-16T08:11:06;3.13;;;1.85;;
25015;SDS011;13029;46.286;7.488;2023-07-16T08:13:31;3.13;;;2.40;;
25015;SDS011;13029;46.286;7.488;2023-07-16T08:15:56;3.05;;;2.35;;
25015;SDS011;13029;46.286;7.488;2023-07-16T08:18:22;3.13;;;2.40;;
25015;SDS011;13029;46.286;7.488;2023-07-16T08:20:47;4.30;;;2.30;;
25015;SDS011;13029;46.286;7.488;2023-07-16T08:23:12;3.13;;;2.08;;
25015;SDS011;13029;46.286;7.488;2023-07-16T08:25:38;4.03;;;2.10;;
25015;SDS011;13029;46.286;7.488;2023-07-16T08:28:03;6.15;;;2.97;;
25015;SDS011;13029;46.286;7.488;2023-07-16T08:30:29;2.70;;;2.45;;
25015;SDS011;13029;46.286;7.488;2023-07-16T08:32:54;3.92;;;2.70;;
25015;SDS011;13029;46.286;7.488;2023-07-16T08:35:20;4.97;;;2.30;;
25015;SDS011;13029;46.286;7.488;2023-07-16T08:37:45;4.18;;;2.53;;
25015;SDS011;13029;46.286;7.488;2023-07-16T08:40:14;2.92;;;2.30;;
25015;SDS011;13029;46.286;7.488;2023-07-16T08:42:39;3.92;;;2.30;;
25015;SDS011;13029;46.286;7.488;2023-07-16T08:45:11;4.47;;;2.50;;
25015;SDS011;13029;46.286;7.488;2023-07-16T08:47:37;3.35;;;2.67;;
25015;SDS011;13029;46.286;7.488;2023-07-16T08:50:02;3.35;;;2.38;;
25015;SDS011;13029;46.286;7.488;2023-07-16T08:52:28;4.13;;;2.33;;
25015;SDS011;13029;46.286;7.488;2023-07-16T08:54:54;4.22;;;2.72;;
25015;SDS011;13029;46.286;7.488;2023-07-16T08:57:20;4.45;;;2.20;;
25015;SDS011;13029;46.286;7.488;2023-07-16T08:59:47;4.72;;;2.42;;
25015;SDS011;13029;46.286;7.488;2023-07-16T09:02:13;4.88;;;2.17;;
25015;SDS011;13029;46.286;7.488;2023-07-16T09:04:38;3.33;;;2.30;;
25015;SDS011;13029;46.286;7.488;2023-07-16T09:07:04;6.28;;;2.35;;
25015;SDS011;13029;46.286;7.488;2023-07-16T09:09:29;4.35;;;2.15;;
25015;SDS011;13029;46.286;7.488;2023-07-16T09:11:55;5.93;;;2.38;;
25015;SDS011;13029;46.286;7.488;2023-07-16T09:14:20;3.60;;;2.33;;
25015;SDS011;13029;46.286;7.488;2023-07-16T09:16:52;4.95;;;2.40;;
25015;SDS011;13029;46.286;7.488;2023-07-16T09:19:18;3.55;;;2.40;;
25015;SDS011;13029;46.286;7.488;2023-07-16T09:21:47;3.75;;;2.67;;
25015;SDS011;13029;46.286;7.488;2023-07-16T09:24:13;2.60;;;2.17;;
25015;SDS011;13029;46.286;7.488;2023-07-16T09:26:39;5.93;;;2.45;;
25015;SDS011;13029;46.286;7.488;2023-07-16T09:29:07;4.22;;;2.58;;
25015;SDS011;13029;46.286;7.488;2023-07-16T09:31:33;4.45;;;2.78;;
25015;SDS011;13029;46.286;7.488;2023-07-16T09:33:58;3.13;;;2.58;;
25015;SDS011;13029;46.286;7.488;2023-07-16T09:36:24;7.57;;;2.72;;
25015;SDS011;13029;46.286;7.488;2023-07-16T09:38:50;7.03;;;3.00;;
25015;SDS011;13029;46.286;7.488;2023-07-16T09:41:17;4.22;;;2.55;;
25015;SDS011;13029;46.286;7.488;2023-07-16T09:43:43;6.47;;;3.03;;
25015;SDS011;13029;46.286;7.488;2023-07-16T09:46:08;3.78;;;2.50;;
25015;SDS011;13029;46.286;7.488;2023-07-16T09:48:34;4.60;;;2.85;;
25015;SDS011;13029;46.286;7.488;2023-07-16T09:50:59;3.42;;;2.47;;
25015;SDS011;13029;46.286;7.488;2023-07-16T09:53:25;3.20;;;2.75;;
25015;SDS011;13029;46.286;7.488;2023-07-16T09:55:51;6.47;;;3.42;;
25015;SDS011;13029;46.286;7.488;2023-07-16T09:58:18;6.13;;;3.03;;
25015;SDS011;13029;46.286;7.488;2023-07-16T10:00:44;4.28;;;3.00;;
25015;SDS011;13029;46.286;7.488;2023-07-16T10:03:11;4.28;;;2.80;;
25015;SDS011;13029;46.286;7.488;2023-07-16T10:05:36;6.38;;;3.30;;
25015;SDS011;13029;46.286;7.488;2023-07-16T10:08:02;9.15;;;3.22;;
25015;SDS011;13029;46.286;7.488;2023-07-16T10:10:43;5.78;;;3.00;;
25015;SDS011;13029;46.286;7.488;2023-07-16T10:13:12;5.50;;;3.00;;
25015;SDS011;13029;46.286;7.488;2023-07-16T10:15:38;4.30;;;2.97;;
25015;SDS011;13029;46.286;7.488;2023-07-16T10:18:04;4.90;;;2.90;;
25015;SDS011;13029;46.286;7.488;2023-07-16T10:20:30;5.70;;;3.10;;
25015;SDS011;13029;46.286;7.488;2023-07-16T10:22:57;7.68;;;3.22;;
25015;SDS011;13029;46.286;7.488;2023-07-16T10:25:24;8.48;;;3.17;;
25015;SDS011;13029;46.286;7.488;2023-07-16T10:27:52;3.33;;;2.72;;
25015;SDS011;13029;46.286;7.488;2023-07-16T10:30:18;5.18;;;3.00;;
25015;SDS011;13029;46.286;7.488;2023-07-16T10:32:44;6.18;;;2.60;;
25015;SDS011;13029;46.286;7.488;2023-07-16T10:35:10;4.57;;;2.92;;
25015;SDS011;13029;46.286;7.488;2023-07-16T10:37:35;5.40;;;2.75;;
25015;SDS011;13029;46.286;7.488;2023-07-16T10:40:02;5.07;;;2.90;;
25015;SDS011;13029;46.286;7.488;2023-07-16T10:42:28;4.07;;;2.70;;
25015;SDS011;13029;46.286;7.488;2023-07-16T10:44:55;4.95;;;3.00;;
25015;SDS011;13029;46.286;7.488;2023-07-16T10:47:23;3.70;;;2.58;;
25015;SDS011;13029;46.286;7.488;2023-07-16T10:49:50;5.38;;;3.20;;
25015;SDS011;13029;46.286;7.488;2023-07-16T10:52:17;6.00;;;3.05;;
25015;SDS011;13029;46.286;7.488;2023-07-16T10:54:42;3.70;;;2.38;;
25015;SDS011;13029;46.286;7.488;2023-07-16T10:57:08;4.72;;;3.03;;
25015;SDS011;13029;46.286;7.488;2023-07-16T10:59:33;7.25;;;3.00;;
25015;SDS011;13029;46.286;7.488;2023-07-16T11:02:02;3.53;;;2.67;;
25015;SDS011;13029;46.286;7.488;2023-07-16T11:04:32;4.25;;;2.92;;
25015;SDS011;13029;46.286;7.488;2023-07-16T11:06:58;4.38;;;2.80;;
25015;SDS011;13029;46.286;7.488;2023-07-16T11:09:23;5.60;;;2.90;;
25015;SDS011;13029;46.286;7.488;2023-07-16T11:11:49;4.80;;;2.60;;
25015;SDS011;13029;46.286;7.488;2023-07-16T11:14:14;4.57;;;3.13;;
25015;SDS011;13029;46.286;7.488;2023-07-16T11:16:40;4.85;;;2.65;;
25015;SDS011;13029;46.286;7.488;2023-07-16T11:19:05;6.70;;;2.88;;
25015;SDS011;13029;46.286;7.488;2023-07-16T11:21:33;3.38;;;2.90;;
25015;SDS011;13029;46.286;7.488;2023-07-16T11:24:13;5.32;;;2.90;;
25015;SDS011;13029;46.286;7.488;2023-07-16T11:26:48;5.07;;;2.97;;
25015;SDS011;13029;46.286;7.488;2023-07-16T11:29:15;4.15;;;2.90;;
25015;SDS011;13029;46.286;7.488;2023-07-16T11:31:40;6.13;;;2.95;;
25015;SDS011;13029;46.286;7.488;2023-07-16T11:34:14;6.28;;;3.22;;
25015;SDS011;13029;46.286;7.488;2023-07-16T11:36:40;5.50;;;2.88;;
25015;SDS011;13029;46.286;7.488;2023-07-16T11:39:06;5.60;;;2.92;;
25015;SDS011;13029;46.286;7.488;2023-07-16T11:41:31;5.45;;;3.20;;
25015;SDS011;13029;46.286;7.488;2023-07-16T11:44:00;5.65;;;3.50;;
25015;SDS011;13029;46.286;7.488;2023-07-16T11:46:30;6.93;;;3.28;;
25015;SDS011;13029;46.286;7.488;2023-07-16T11:48:57;6.20;;;3.28;;
25015;SDS011;13029;46.286;7.488;2023-07-16T11:51:22;3.80;;;3.00;;
25015;SDS011;13029;46.286;7.488;2023-07-16T11:53:47;3.90;;;3.00;;
25015;SDS011;13029;46.286;7.488;2023-07-16T11:56:12;4.43;;;3.15;;
25015;SDS011;13029;46.286;7.488;2023-07-16T11:58:38;5.07;;;2.85;;
25015;SDS011;13029;46.286;7.488;2023-07-16T12:01:03;4.00;;;3.10;;
25015;SDS011;13029;46.286;7.488;2023-07-16T12:03:28;4.68;;;3.40;;
25015;SDS011;13029;46.286;7.488;2023-07-16T12:05:54;6.68;;;3.47;;
25015;SDS011;13029;46.286;7.488;2023-07-16T12:08:19;4.30;;;3.05;;
25015;SDS011;13029;46.286;7.488;2023-07-16T12:10:44;4.18;;;3.40;;
25015;SDS011;13029;46.286;7.488;2023-07-16T12:13:10;6.80;;;3.58;;
25015;SDS011;13029;46.286;7.488;2023-07-16T12:15:35;6.53;;;3.45;;
25015;SDS011;13029;46.286;7.488;2023-07-16T12:18:00;8.00;;;3.73;;
25015;SDS011;13029;46.286;7.488;2023-07-16T12:20:26;5.18;;;3.40;;
25015;SDS011;13029;46.286;7.488;2023-07-16T12:22:51;6.18;;;3.60;;
25015;SDS011;13029;46.286;7.488;2023-07-16T12:25:16;4.68;;;3.33;;
25015;SDS011;13029;46.286;7.488;2023-07-16T12:27:43;6.60;;;3.65;;
25015;SDS011;13029;46.286;7.488;2023-07-16T12:30:09;6.03;;;3.33;;
25015;SDS011;13029;46.286;7.488;2023-07-16T12:32:35;4.50;;;3.42;;
25015;SDS011;13029;46.286;7.488;2023-07-16T12:35:00;4.75;;;3.20;;
25015;SDS011;13029;46.286;7.488;2023-07-16T12:37:26;5.95;;;3.38;;
25015;SDS011;13029;46.286;7.488;2023-07-16T12:39:51;4.32;;;3.50;;
25015;SDS011;13029;46.286;7.488;2023-07-16T12:42:17;4.30;;;3.33;;
25015;SDS011;13029;46.286;7.488;2023-07-16T12:44:42;6.15;;;3.15;;
25015;SDS011;13029;46.286;7.488;2023-07-16T12:47:08;4.45;;;3.13;;
25015;SDS011;13029;46.286;7.488;2023-07-16T12:49:36;7.18;;;3.25;;
25015;SDS011;13029;46.286;7.488;2023-07-16T12:52:01;8.30;;;3.45;;
25015;SDS011;13029;46.286;7.488;2023-07-16T12:54:27;5.45;;;3.10;;
25015;SDS011;13029;46.286;7.488;2023-07-16T12:56:52;3.95;;;3.45;;
25015;SDS011;13029;46.286;7.488;2023-07-16T12:59:17;4.57;;;3.08;;
25015;SDS011;13029;46.286;7.488;2023-07-16T13:01:43;7.88;;;3.50;;
25015;SDS011;13029;46.286;7.488;2023-07-16T13:04:08;6.32;;;3.42;;
25015;SDS011;13029;46.286;7.488;2023-07-16T13:06:33;5.75;;;3.35;;
25015;SDS011;13029;46.286;7.488;2023-07-16T13:08:59;4.68;;;3.45;;
25015;SDS011;13029;46.286;7.488;2023-07-16T13:11:24;8.07;;;3.40;;
25015;SDS011;13029;46.286;7.488;2023-07-16T13:13:50;5.53;;;3.80;;
25015;SDS011;13029;46.286;7.488;2023-07-16T13:16:15;5.82;;;3.40;;
25015;SDS011;13029;46.286;7.488;2023-07-16T13:18:40;6.07;;;3.50;;
25015;SDS011;13029;46.286;7.488;2023-07-16T13:21:06;7.20;;;3.53;;
25015;SDS011;13029;46.286;7.488;2023-07-16T13:23:31;5.43;;;3.90;;
25015;SDS011;13029;46.286;7.488;2023-07-16T13:25:56;4.55;;;3.60;;
25015;SDS011;13029;46.286;7.488;2023-07-16T13:28:22;4.28;;;3.60;;
25015;SDS011;13029;46.286;7.488;2023-07-16T13:30:49;5.32;;;3.83;;
25015;SDS011;13029;46.286;7.488;2023-07-16T13:33:14;6.45;;;3.50;;
25015;SDS011;13029;46.286;7.488;2023-07-16T13:35:39;4.07;;;3.25;;
25015;SDS011;13029;46.286;7.488;2023-07-16T13:38:05;5.80;;;3.10;;
25015;SDS011;13029;46.286;7.488;2023-07-16T13:40:30;4.13;;;3.13;;
25015;SDS011;13029;46.286;7.488;2023-07-16T13:42:55;6.28;;;3.10;;
25015;SDS011;13029;46.286;7.488;2023-07-16T13:45:21;5.63;;;3.55;;
25015;SDS011;13029;46.286;7.488;2023-07-16T13:47:46;3.35;;;3.05;;
25015;SDS011;13029;46.286;7.488;2023-07-16T13:50:13;5.13;;;3.40;;
25015;SDS011;13029;46.286;7.488;2023-07-16T13:52:38;4.50;;;3.10;;
25015;SDS011;13029;46.286;7.488;2023-07-16T13:55:04;3.60;;;3.30;;
25015;SDS011;13029;46.286;7.488;2023-07-16T13:57:30;6.03;;;3.40;;
25015;SDS011;13029;46.286;7.488;2023-07-16T13:59:55;4.03;;;2.97;;
25015;SDS011;13029;46.286;7.488;2023-07-16T14:02:20;5.45;;;3.50;;
25015;SDS011;13029;46.286;7.488;2023-07-16T14:04:46;3.60;;;3.28;;
25015;SDS011;13029;46.286;7.488;2023-07-16T14:07:11;5.93;;;2.97;;
25015;SDS011;13029;46.286;7.488;2023-07-16T14:09:37;4.23;;;3.60;;
25015;SDS011;13029;46.286;7.488;2023-07-16T14:12:02;6.63;;;3.42;;
25015;SDS011;13029;46.286;7.488;2023-07-16T14:14:28;5.95;;;3.03;;
25015;SDS011;13029;46.286;7.488;2023-07-16T14:16:53;5.40;;;3.10;;
25015;SDS011;13029;46.286;7.488;2023-07-16T14:19:19;5.53;;;3.20;;
25015;SDS011;13029;46.286;7.488;2023-07-16T14:21:44;6.40;;;3.00;;
25015;SDS011;13029;46.286;7.488;2023-07-16T14:24:09;7.32;;;3.13;;
25015;SDS011;13029;46.286;7.488;2023-07-16T14:26:35;4.00;;;2.90;;
25015;SDS011;13029;46.286;7.488;2023-07-16T14:29:00;5.45;;;3.08;;
25015;SDS011;13029;46.286;7.488;2023-07-16T14:31:26;4.85;;;3.15;;
25015;SDS011;13029;46.286;7.488;2023-07-16T14:33:51;4.32;;;2.97;;
25015;SDS011;13029;46.286;7.488;2023-07-16T14:36:16;8.43;;;3.13;;
25015;SDS011;13029;46.286;7.488;2023-07-16T14:38:42;4.50;;;3.03;;
25015;SDS011;13029;46.286;7.488;2023-07-16T14:41:07;3.50;;;2.80;;
25015;SDS011;13029;46.286;7.488;2023-07-16T14:43:33;6.38;;;2.95;;
25015;SDS011;13029;46.286;7.488;2023-07-16T14:45:58;5.03;;;3.00;;
25015;SDS011;13029;46.286;7.488;2023-07-16T14:48:24;3.15;;;2.85;;